createdAt,value
2023-02-07T00:00:31.390Z,14.83
2023-02-07T00:03:34.029Z,13.98
2023-02-07T00:06:36.881Z,13.90
2023-02-07T00:09:39.352Z,13.70
2023-02-07T00:12:41.663Z,12.68
2023-02-07T00:15:44.117Z,12.87
2023-02-07T00:18:46.764Z,13.18
2023-02-07T00:21:49.226Z,12.05
2023-02-07T00:24:51.744Z,12.90
2023-02-07T00:27:54.349Z,12.57
2023-02-07T00:31:11.830Z,13.80
2023-02-07T00:34:15.333Z,13.43
2023-02-07T00:37:17.600Z,13.10
2023-02-07T00:40:20.200Z,15.77
2023-02-07T00:43:29.649Z,13.45
2023-02-07T00:46:33.457Z,12.57
2023-02-07T00:49:35.730Z,12.65
2023-02-07T00:52:38.345Z,12.45
2023-02-07T00:55:40.577Z,13.48
2023-02-07T00:58:43.609Z,16.05
2023-02-07T01:01:45.886Z,13.52
2023-02-07T01:04:48.647Z,12.95
2023-02-07T01:07:51.052Z,13.00
2023-02-07T01:10:53.560Z,12.60
2023-02-07T01:13:56.286Z,13.18
2023-02-07T01:16:58.824Z,11.75
2023-02-07T01:20:01.247Z,12.52
2023-02-07T01:23:06.135Z,12.65
2023-02-07T01:26:10.642Z,14.77
2023-02-07T01:29:16.552Z,11.68
2023-02-07T01:32:19.645Z,12.88
2023-02-07T01:35:23.287Z,12.63
2023-02-07T01:38:26.547Z,11.43
2023-02-07T01:41:31.526Z,11.32
2023-02-07T01:44:36.716Z,12.55
2023-02-07T01:47:40.183Z,13.60
2023-02-07T01:50:48.182Z,11.80
2023-02-07T01:53:56.276Z,12.23
2023-02-07T01:57:06.462Z,12.63
2023-02-07T02:00:15.180Z,12.48
2023-02-07T02:03:17.671Z,10.52
2023-02-07T02:06:24.672Z,10.82
2023-02-07T02:09:28.643Z,13.77
2023-02-07T02:12:36.740Z,10.95
2023-02-07T02:16:06.539Z,10.18
2023-02-07T02:19:38.662Z,11.65
2023-02-07T02:23:01.385Z,12.32
2023-02-07T02:26:07.194Z,13.62
2023-02-07T02:29:40.485Z,10.77
2023-02-07T02:33:01.167Z,12.27
2023-02-07T02:36:22.678Z,12.35
2023-02-07T02:39:34.486Z,10.73
2023-02-07T02:42:46.483Z,13.05
2023-02-07T02:45:55.713Z,11.95
2023-02-07T02:49:02.199Z,13.18
2023-02-07T02:52:05.329Z,10.00
2023-02-07T02:55:08.707Z,10.15
2023-02-07T02:58:20.175Z,12.93
2023-02-07T03:01:54.465Z,10.82
2023-02-07T03:05:15.264Z,11.07
2023-02-07T03:08:28.763Z,11.40
2023-02-07T03:11:41.161Z,10.55
2023-02-07T03:15:03.409Z,10.50
2023-02-07T03:18:19.037Z,13.05
2023-02-07T03:21:28.519Z,11.60
2023-02-07T03:24:33.913Z,11.20
2023-02-07T03:27:38.658Z,11.32
2023-02-07T03:30:44.140Z,12.68
2023-02-07T03:33:51.565Z,11.20
2023-02-07T03:36:56.969Z,12.93
2023-02-07T03:40:01.160Z,13.70
2023-02-07T03:43:11.081Z,14.13
2023-02-07T03:46:15.546Z,11.32
2023-02-07T03:49:18.720Z,13.50
2023-02-07T03:55:25.073Z,10.82
2023-02-07T03:58:28.455Z,11.18
2023-02-07T04:01:32.984Z,11.90
2023-02-07T04:04:37.466Z,11.45
2023-02-07T04:07:40.713Z,12.85
2023-02-07T04:13:46.619Z,11.35
2023-02-07T04:16:50.178Z,11.23
2023-02-07T04:19:53.530Z,11.45
2023-02-07T04:22:56.753Z,11.73
2023-02-07T04:25:59.372Z,12.27
2023-02-07T04:29:02.720Z,11.52
2023-02-07T04:32:14.036Z,11.80
2023-02-07T04:35:39.993Z,11.12
2023-02-07T04:42:23.064Z,11.82
2023-02-07T04:45:47.725Z,13.18
2023-02-07T04:49:34.013Z,15.50
2023-02-07T04:53:02.008Z,11.23
2023-02-07T05:00:34.613Z,12.18
2023-02-07T05:03:45.224Z,12.27
2023-02-07T05:06:49.361Z,9.13
2023-02-07T05:09:53.548Z,11.80
2023-02-07T05:15:58.037Z,10.90
2023-02-07T05:19:00.556Z,10.82
2023-02-07T05:22:03.121Z,10.85
2023-02-07T05:25:06.154Z,12.90
2023-02-07T05:28:09.885Z,13.88
2023-02-07T05:31:12.222Z,11.60
2023-02-07T05:34:14.758Z,11.82
2023-02-07T05:37:16.987Z,11.30
2023-02-07T05:40:20.632Z,10.40
2023-02-07T05:46:25.283Z,10.43
2023-02-07T05:52:31.146Z,13.30
2023-02-07T05:55:34.377Z,11.23
2023-02-07T05:58:39.861Z,12.32
2023-02-07T06:01:42.223Z,13.50
2023-02-07T06:04:44.861Z,10.88
2023-02-07T06:07:47.824Z,11.70
2023-02-07T06:10:50.401Z,12.60
2023-02-07T06:13:54.571Z,12.20
2023-02-07T06:16:57.532Z,10.63
2023-02-07T06:20:00.078Z,10.95
2023-02-07T06:23:02.921Z,12.32
2023-02-07T06:26:05.349Z,11.60
2023-02-07T06:29:07.986Z,14.55
2023-02-07T06:32:11.085Z,16.48
2023-02-07T06:38:18.103Z,10.43
2023-02-07T06:41:21.626Z,12.27
2023-02-07T06:44:23.927Z,11.18
2023-02-07T06:47:26.422Z,10.60
2023-02-07T06:50:29.260Z,9.88
2023-02-07T06:53:32.492Z,11.82
2023-02-07T06:56:35.485Z,13.15
2023-02-07T06:59:46.361Z,12.45
2023-02-07T07:02:50.735Z,12.68
2023-02-07T07:09:41.221Z,11.25
2023-02-07T07:13:47.573Z,13.95
2023-02-07T07:17:03.373Z,12.07
2023-02-07T07:24:04.770Z,11.02
2023-02-07T07:27:07.472Z,11.20
2023-02-07T07:30:12.068Z,10.23
2023-02-07T07:33:15.552Z,10.82
2023-02-07T07:36:22.569Z,12.18
2023-02-07T07:39:25.588Z,11.15
2023-02-07T07:42:28.816Z,15.45
2023-02-07T07:45:33.654Z,14.00
2023-02-07T07:48:37.812Z,12.98
2023-02-07T07:51:40.994Z,13.50
2023-02-07T07:54:44.773Z,12.68
2023-02-07T07:57:49.550Z,12.35
2023-02-07T08:00:53.353Z,12.52
2023-02-07T08:03:55.889Z,10.65
2023-02-07T08:07:00.420Z,13.00
2023-02-07T08:10:06.286Z,14.68
2023-02-07T08:13:09.974Z,15.82
2023-02-07T08:16:12.570Z,17.70
2023-02-07T08:19:15.174Z,17.83
2023-02-07T08:22:17.715Z,17.87
2023-02-07T08:25:19.971Z,18.15
2023-02-07T08:28:22.720Z,18.10
2023-02-07T08:34:29.090Z,15.15
2023-02-07T08:37:31.423Z,15.70
2023-02-07T08:40:34.671Z,16.23
2023-02-07T08:43:38.157Z,19.12
2023-02-07T08:46:40.677Z,17.65
2023-02-07T08:49:43.110Z,19.50
2023-02-07T08:52:46.145Z,18.35
2023-02-07T08:55:48.431Z,18.60
2023-02-07T08:58:50.941Z,19.03
2023-02-07T09:01:53.212Z,19.65
2023-02-07T09:04:55.925Z,17.40
2023-02-07T09:07:58.234Z,18.35
2023-02-07T09:11:00.858Z,18.73
2023-02-07T09:14:03.258Z,18.87
2023-02-07T09:17:07.514Z,15.87
2023-02-07T09:20:10.836Z,18.35
2023-02-07T09:26:23.395Z,19.12
2023-02-07T09:29:25.873Z,18.20
2023-02-07T09:32:28.297Z,18.02
2023-02-07T09:35:30.886Z,18.10
2023-02-07T09:38:33.123Z,16.98
2023-02-07T09:41:54.519Z,18.83
2023-02-07T09:45:04.880Z,18.15
2023-02-07T09:48:23.967Z,18.62
2023-02-07T09:51:27.433Z,17.15
2023-02-07T09:54:37.889Z,16.35
2023-02-07T09:57:51.643Z,17.65
2023-02-07T10:01:22.946Z,18.77
2023-02-07T10:04:48.266Z,16.42
2023-02-07T10:07:51.500Z,17.25
2023-02-07T10:11:03.145Z,15.35
2023-02-07T10:14:34.208Z,14.98
2023-02-07T10:17:42.774Z,15.55
2023-02-07T10:21:20.002Z,16.50
2023-02-07T10:24:37.808Z,16.60
2023-02-07T10:28:03.356Z,15.55
2023-02-07T10:31:16.410Z,16.65
2023-02-07T10:34:31.583Z,14.73
2023-02-07T10:37:38.052Z,15.35
2023-02-07T10:40:53.598Z,15.73
2023-02-07T10:43:56.293Z,16.83
2023-02-07T10:47:01.555Z,14.60
2023-02-07T10:50:12.031Z,13.73
2023-02-07T10:53:54.700Z,17.02
2023-02-07T10:57:02.541Z,15.73
2023-02-07T11:00:21.417Z,14.65
2023-02-07T11:03:25.554Z,15.32
2023-02-07T11:06:32.982Z,16.85
2023-02-07T11:09:38.166Z,16.80
2023-02-07T11:12:54.618Z,15.38
2023-02-07T11:16:06.093Z,13.48
2023-02-07T11:19:09.537Z,15.13
2023-02-07T11:22:21.697Z,15.88
2023-02-07T11:25:35.070Z,15.98
2023-02-07T11:28:37.858Z,15.95
2023-02-07T11:31:42.918Z,16.00
2023-02-07T11:34:58.281Z,16.37
2023-02-07T11:38:12.369Z,15.55
2023-02-07T11:41:23.588Z,16.30
2023-02-07T11:44:29.670Z,15.02
2023-02-07T11:47:35.611Z,14.40
2023-02-07T11:50:41.022Z,13.23
2023-02-07T11:53:51.142Z,14.07
2023-02-07T11:57:05.239Z,11.73
2023-02-07T12:00:23.080Z,12.20
2023-02-07T12:03:27.985Z,12.73
2023-02-07T12:06:52.617Z,11.55
2023-02-07T12:09:59.248Z,12.95
2023-02-07T12:13:14.605Z,11.70
2023-02-07T12:16:24.588Z,12.37
2023-02-07T12:19:37.440Z,12.48
2023-02-07T12:23:01.023Z,11.90
2023-02-07T12:26:15.362Z,12.85
2023-02-07T12:30:00.203Z,12.37
2023-02-07T12:33:20.961Z,13.48
2023-02-07T12:36:42.087Z,14.30
2023-02-07T12:39:54.638Z,13.60
2023-02-07T12:43:07.199Z,13.50
2023-02-07T12:46:41.328Z,12.02
2023-02-07T12:50:21.789Z,13.95
2023-02-07T12:53:32.674Z,13.27
2023-02-07T12:57:05.192Z,13.40
2023-02-07T13:00:26.538Z,13.27
2023-02-07T13:03:50.622Z,13.15
2023-02-07T13:07:14.834Z,12.50
2023-02-07T13:10:31.862Z,13.05
2023-02-07T13:13:59.331Z,14.15
2023-02-07T13:17:39.380Z,11.43
2023-02-07T13:21:04.708Z,11.90
2023-02-07T13:24:08.669Z,14.18
2023-02-07T13:27:20.565Z,11.20
2023-02-07T13:30:24.495Z,14.45
2023-02-07T13:33:41.906Z,14.75
2023-02-07T13:36:46.784Z,12.25
2023-02-07T13:40:05.953Z,13.20
2023-02-07T13:43:27.774Z,12.07
2023-02-07T13:46:55.774Z,13.55
2023-02-07T13:50:00.956Z,11.95
2023-02-07T13:53:20.701Z,13.25
2023-02-07T13:56:53.441Z,12.55
2023-02-07T14:00:17.788Z,12.77
2023-02-07T14:03:30.229Z,12.75
2023-02-07T14:06:53.023Z,11.73
2023-02-07T14:10:00.416Z,13.40
2023-02-07T14:13:04.148Z,13.13
2023-02-07T14:16:09.667Z,12.55
2023-02-07T14:19:13.828Z,11.93
2023-02-07T14:25:38.899Z,12.15
2023-02-07T14:28:43.290Z,10.88
2023-02-07T14:32:15.021Z,11.35
2023-02-07T14:35:18.206Z,11.27
2023-02-07T14:38:25.542Z,11.57
2023-02-07T14:41:32.217Z,11.12
2023-02-07T14:44:37.616Z,10.93
2023-02-07T14:47:39.877Z,11.05
2023-02-07T14:50:52.627Z,11.60
2023-02-07T14:54:08.161Z,11.85
2023-02-07T14:57:33.578Z,10.32
2023-02-07T15:00:50.954Z,11.43
2023-02-07T15:04:05.689Z,11.20
2023-02-07T15:07:13.354Z,10.60
2023-02-07T15:10:24.341Z,11.23
2023-02-07T15:13:30.509Z,8.60
2023-02-07T15:16:38.451Z,11.95
2023-02-07T15:19:42.416Z,10.38
2023-02-07T15:22:52.886Z,10.93
2023-02-07T15:25:56.421Z,10.85
2023-02-07T15:29:06.704Z,11.35
2023-02-07T15:32:42.221Z,11.55
2023-02-07T15:35:45.479Z,10.38
2023-02-07T15:38:47.813Z,10.98
2023-02-07T15:41:53.062Z,11.33
2023-02-07T15:44:57.565Z,12.50
2023-02-07T15:48:03.772Z,12.30
2023-02-07T15:51:06.111Z,10.85
2023-02-07T15:54:16.255Z,12.07
2023-02-07T15:57:29.800Z,11.63
2023-02-07T16:00:39.020Z,12.68
2023-02-07T16:03:44.005Z,11.68
2023-02-07T16:07:11.973Z,11.43
2023-02-07T16:10:23.985Z,12.30
2023-02-07T16:13:26.220Z,11.63
2023-02-07T16:16:35.651Z,10.63
2023-02-07T16:19:45.914Z,10.57
2023-02-07T16:22:49.173Z,12.43
2023-02-07T16:25:51.380Z,11.82
2023-02-07T16:28:53.983Z,12.50
2023-02-07T16:31:56.409Z,12.80
2023-02-07T16:35:00.350Z,11.65
2023-02-07T16:38:02.893Z,12.40
2023-02-07T16:41:05.416Z,10.87
2023-02-07T16:44:12.178Z,12.95
2023-02-07T16:47:16.025Z,13.18
2023-02-07T16:53:27.982Z,11.80
2023-02-07T16:56:30.143Z,16.37
2023-02-07T16:59:32.937Z,15.65
2023-02-07T17:02:35.281Z,14.77
2023-02-07T17:05:39.122Z,14.73
2023-02-07T17:11:44.135Z,14.27
2023-02-07T17:14:46.554Z,14.13
2023-02-07T17:17:49.822Z,15.70
2023-02-07T17:20:52.243Z,16.27
2023-02-07T17:23:54.710Z,14.48
2023-02-07T17:26:58.130Z,19.08
2023-02-07T17:30:00.615Z,16.87
2023-02-07T17:33:02.824Z,17.23
2023-02-07T17:36:06.281Z,16.62
2023-02-07T17:39:12.624Z,16.27
2023-02-07T17:42:15.043Z,17.92
2023-02-07T17:45:17.370Z,18.77
2023-02-07T17:48:19.828Z,19.17
2023-02-07T17:51:26.484Z,17.70
2023-02-07T17:54:29.004Z,16.23
2023-02-07T17:57:31.173Z,18.42
2023-02-07T18:00:39.778Z,16.90
2023-02-07T18:03:42.575Z,18.52
2023-02-07T18:06:44.717Z,17.87
2023-02-07T18:09:47.257Z,16.42
2023-02-07T18:12:49.565Z,17.85
2023-02-07T18:15:52.405Z,15.97
2023-02-07T18:18:56.547Z,17.12
2023-02-07T18:21:59.362Z,16.37
2023-02-07T18:25:01.838Z,18.00
2023-02-07T18:28:04.653Z,15.75
2023-02-07T18:31:17.234Z,16.62
2023-02-07T18:34:20.255Z,17.83
2023-02-07T18:37:23.016Z,17.67
2023-02-07T18:40:25.720Z,16.65
2023-02-07T18:43:29.454Z,17.42
2023-02-07T18:46:33.055Z,18.10
2023-02-07T18:49:36.345Z,17.00
2023-02-07T18:52:39.720Z,15.68
2023-02-07T18:55:42.564Z,15.57
2023-02-07T18:58:49.235Z,15.80
2023-02-07T19:01:53.593Z,17.87
2023-02-07T19:04:56.486Z,16.73
2023-02-07T19:07:58.959Z,17.35
2023-02-07T19:11:03.990Z,16.85
2023-02-07T19:14:28.407Z,16.90
2023-02-07T19:17:31.366Z,16.42
2023-02-07T19:20:33.546Z,16.33
2023-02-07T19:23:36.196Z,15.48
2023-02-07T19:26:39.031Z,19.77
2023-02-07T19:29:41.594Z,18.45
2023-02-07T19:32:43.812Z,17.73
2023-02-07T19:35:46.336Z,16.53
2023-02-07T19:38:49.296Z,17.27
2023-02-07T19:41:52.200Z,18.95
2023-02-07T19:44:54.407Z,19.17
2023-02-07T19:47:56.867Z,16.43
2023-02-07T19:51:01.141Z,18.42
2023-02-07T19:54:03.971Z,17.85
2023-02-07T19:57:06.661Z,18.48
2023-02-07T20:00:10.727Z,19.60
2023-02-07T20:03:13.402Z,19.17
2023-02-07T20:06:16.216Z,18.48
2023-02-07T20:09:19.149Z,19.25
2023-02-07T20:12:21.470Z,16.37
2023-02-07T20:15:23.938Z,16.30
2023-02-07T20:18:26.886Z,19.55
2023-02-07T20:21:31.602Z,19.67
2023-02-07T20:24:33.952Z,18.30
2023-02-07T20:27:36.785Z,15.80
2023-02-07T20:30:44.436Z,18.17
2023-02-07T20:33:47.229Z,18.60
2023-02-07T20:36:49.402Z,17.05
2023-02-07T20:39:51.943Z,19.00
2023-02-07T20:42:54.304Z,16.05
2023-02-07T20:46:08.055Z,18.63
2023-02-07T20:49:19.900Z,20.42
2023-02-07T20:52:22.326Z,17.10
2023-02-07T20:55:24.914Z,19.42
2023-02-07T20:58:27.734Z,16.77
2023-02-07T21:01:31.992Z,19.33
2023-02-07T21:04:36.384Z,18.23
2023-02-07T21:07:38.751Z,21.40
2023-02-07T21:10:41.814Z,20.90
2023-02-07T21:13:45.868Z,20.05
2023-02-07T21:16:49.882Z,19.58
2023-02-07T21:19:52.393Z,16.15
2023-02-07T21:22:54.861Z,20.23
2023-02-07T21:26:06.075Z,19.08
2023-02-07T21:29:10.300Z,19.40
2023-02-07T21:32:12.786Z,18.65
2023-02-07T21:35:15.308Z,17.60
2023-02-07T21:38:17.500Z,17.87
2023-02-07T21:41:22.893Z,17.07
2023-02-07T21:44:25.201Z,19.58
2023-02-07T21:47:28.593Z,17.17
2023-02-07T21:50:30.744Z,17.67
2023-02-07T21:53:34.159Z,19.20
2023-02-07T21:56:39.081Z,17.58
2023-02-07T21:59:42.544Z,19.87
2023-02-07T22:02:44.838Z,20.95
2023-02-07T22:05:50.723Z,19.80
2023-02-07T22:08:57.772Z,21.35
2023-02-07T22:12:00.308Z,21.10
2023-02-07T22:15:02.487Z,19.60
2023-02-07T22:18:05.335Z,18.98
2023-02-07T22:21:11.308Z,20.63
2023-02-07T22:24:16.069Z,16.73
2023-02-07T22:27:18.287Z,20.90
2023-02-07T22:30:20.801Z,17.87
2023-02-07T22:33:23.020Z,21.95
2023-02-07T22:36:27.830Z,18.87
2023-02-07T22:39:30.007Z,21.30
2023-02-07T22:42:34.216Z,21.10
2023-02-07T22:48:39.203Z,18.80
2023-02-07T22:51:41.462Z,19.95
2023-02-07T22:54:44.119Z,21.90
2023-02-07T22:57:50.551Z,22.45
2023-02-07T23:00:53.123Z,22.08
2023-02-07T23:03:56.308Z,19.95
2023-02-07T23:10:01.038Z,18.62
2023-02-07T23:13:03.699Z,24.73
2023-02-07T23:16:09.870Z,21.23
2023-02-07T23:19:17.977Z,21.42
2023-02-07T23:22:20.597Z,21.75
2023-02-07T23:25:23.172Z,21.58
2023-02-07T23:28:25.614Z,19.92
2023-02-07T23:31:28.518Z,21.75
2023-02-07T23:34:31.648Z,21.52
2023-02-07T23:37:34.488Z,21.10
2023-02-07T23:40:37.090Z,19.85
2023-02-07T23:43:39.869Z,20.55
2023-02-07T23:46:43.080Z,19.60
2023-02-07T23:52:48.057Z,19.10
2023-02-07T23:55:53.024Z,19.17
2023-02-07T23:58:55.280Z,21.48
